Time;durP1;ratioP1;P1;durP2;ratioP2;P2;SDS_P1;SDS_P2;PMS_P1;PMS_P2;Temp;Humidity;BMP_temperature;BMP_pressure;BME280_temperature;BME280_humidity;BME280_pressure;Samples;Min_cycle;Max_cycle;Signal;HPM_P1;HPM_P2
2023/07/22 00:02:24;;;;;;;10.88;6.82;;;13.40;99.90;;;;;;5128444;27;20084;-81
2023/07/22 00:04:50;;;;;;;11.73;6.85;;;13.40;99.90;;;;;;5111661;27;20043;-81
2023/07/22 00:07:16;;;;;;;10.13;6.53;;;13.40;99.90;;;;;;5111365;27;20047;-82
2023/07/22 00:09:43;;;;;;;12.95;6.55;;;13.80;99.90;;;;;;5103347;27;20050;-81
2023/07/22 00:12:09;;;;;;;9.75;6.47;;;13.30;99.90;;;;;;5113394;27;20489;-82
2023/07/22 00:14:39;;;;;;;10.63;6.75;;;13.20;99.90;;;;;;5094387;27;20104;-81
2023/07/22 00:17:05;;;;;;;9.70;6.68;;;13.20;99.90;;;;;;5102380;27;20043;-81
2023/07/22 00:19:30;;;;;;;12.75;7.00;;;13.10;99.90;;;;;;5127019;27;20032;-81
2023/07/22 00:21:56;;;;;;;10.45;6.53;;;13.50;99.90;;;;;;5132172;27;20450;-81
2023/07/22 00:24:22;;;;;;;11.18;6.75;;;13.00;99.90;;;;;;5112501;27;20161;-81
2023/07/22 00:26:49;;;;;;;10.05;6.72;;;13.20;99.90;;;;;;5111626;27;20043;-82
2023/07/22 00:29:16;;;;;;;10.63;7.05;;;12.90;99.90;;;;;;5095239;27;20150;-82
2023/07/22 00:31:41;;;;;;;10.82;6.90;;;12.90;99.90;;;;;;5096363;27;20536;-81
2023/07/22 00:34:08;;;;;;;10.02;7.25;;;13.00;99.90;;;;;;5105396;27;20068;-82
2023/07/22 00:36:33;;;;;;;12.57;7.07;;;12.70;99.90;;;;;;5125292;27;20046;-81
2023/07/22 00:38:59;;;;;;;10.48;6.82;;;12.80;99.90;;;;;;5132669;27;20099;-82
2023/07/22 00:41:25;;;;;;;13.32;8.18;;;12.70;99.90;;;;;;5112204;27;20047;-81
2023/07/22 00:43:50;;;;;;;9.88;7.05;;;12.60;99.90;;;;;;5108679;27;20070;-81
2023/07/22 00:46:16;;;;;;;11.75;7.35;;;12.60;99.90;;;;;;5098441;27;20035;-82
2023/07/22 00:48:42;;;;;;;12.68;7.00;;;12.60;99.90;;;;;;5095535;27;20050;-82
2023/07/22 00:51:08;;;;;;;10.80;7.38;;;12.60;99.90;;;;;;5109962;27;20082;-82
2023/07/22 00:53:34;;;;;;;12.38;7.07;;;13.10;99.90;;;;;;5122265;27;20528;-81
2023/07/22 00:56:00;;;;;;;11.13;7.40;;;12.90;99.90;;;;;;5110881;27;20039;-81
2023/07/22 00:58:26;;;;;;;11.70;7.40;;;12.50;99.90;;;;;;5111949;27;20049;-82
2023/07/22 01:00:52;;;;;;;13.32;7.35;;;12.50;99.90;;;;;;5112502;27;20046;-81
2023/07/22 01:03:18;;;;;;;14.18;7.43;;;12.40;99.90;;;;;;5112245;27;20047;-81
2023/07/22 01:05:47;;;;;;;12.43;7.00;;;12.40;99.90;;;;;;5111781;27;20485;-82
2023/07/22 01:08:13;;;;;;;10.75;7.00;;;12.30;99.90;;;;;;5134946;27;20134;-82
2023/07/22 01:10:39;;;;;;;11.40;7.43;;;12.40;99.90;;;;;;5111690;27;20043;-82
2023/07/22 01:13:05;;;;;;;10.38;6.95;;;12.30;99.90;;;;;;5126617;27;20043;-81
2023/07/22 01:15:31;;;;;;;10.70;7.78;;;12.20;99.90;;;;;;5111472;27;20037;-82
2023/07/22 01:18:01;;;;;;;10.88;6.68;;;12.20;99.90;;;;;;5112285;27;20072;-81
2023/07/22 01:20:30;;;;;;;10.13;6.88;;;12.20;99.90;;;;;;5129950;27;20783;-82
2023/07/22 01:22:56;;;;;;;12.52;7.65;;;12.20;99.90;;;;;;5096310;27;20039;-81
2023/07/22 01:25:23;;;;;;;15.73;9.98;;;12.10;99.90;;;;;;5111809;27;20399;-82
2023/07/22 01:27:51;;;;;;;10.90;7.10;;;12.10;99.90;;;;;;5111186;27;20088;-81
2023/07/22 01:30:19;;;;;;;10.30;7.40;;;12.20;99.90;;;;;;5127164;27;20505;-82
2023/07/22 01:32:46;;;;;;;11.32;7.03;;;12.10;99.90;;;;;;5076124;28;20528;-82
2023/07/22 01:35:11;;;;;;;13.15;7.68;;;12.20;99.90;;;;;;5118955;27;20043;-82
2023/07/22 01:37:37;;;;;;;14.40;7.43;;;12.00;99.90;;;;;;5130264;27;20420;-82
2023/07/22 01:40:11;;;;;;;10.38;6.88;;;12.90;99.90;;;;;;5137844;27;20046;-82
2023/07/22 01:42:38;;;;;;;14.55;7.95;;;12.10;99.90;;;;;;5112160;27;20054;-82
2023/07/22 01:45:07;;;;;;;12.40;7.88;;;12.00;99.90;;;;;;5129924;27;20043;-82
2023/07/22 01:47:37;;;;;;;12.00;7.55;;;12.00;99.90;;;;;;5111573;27;20051;-82
2023/07/22 01:50:03;;;;;;;13.68;7.82;;;12.00;99.90;;;;;;5111334;27;20497;-81
2023/07/22 01:52:29;;;;;;;11.70;7.28;;;11.90;99.90;;;;;;5109511;27;20035;-82
2023/07/22 01:54:54;;;;;;;12.98;8.43;;;11.90;99.90;;;;;;5109865;27;20039;-82
2023/07/22 01:57:23;;;;;;;11.82;7.60;;;11.90;99.90;;;;;;5091537;28;20040;-82
2023/07/22 01:59:48;;;;;;;12.27;7.80;;;11.80;99.90;;;;;;5098610;27;20126;-82
2023/07/22 02:02:15;;;;;;;12.48;7.95;;;11.80;99.90;;;;;;5100377;28;20192;-81
2023/07/22 02:04:40;;;;;;;14.35;8.32;;;11.80;99.90;;;;;;5097507;27;20047;-82
2023/07/22 02:07:06;;;;;;;13.57;8.52;;;11.80;99.90;;;;;;5112187;27;20047;-82
2023/07/22 02:09:32;;;;;;;14.02;7.45;;;11.80;99.90;;;;;;5117905;27;20039;-82
2023/07/22 02:11:58;;;;;;;11.15;8.05;;;11.80;99.90;;;;;;5108065;27;20047;-82
2023/07/22 02:14:24;;;;;;;13.27;8.45;;;11.80;99.90;;;;;;5089099;28;20038;-82
2023/07/22 02:16:49;;;;;;;11.20;7.88;;;11.80;99.90;;;;;;5111048;27;20521;-82
2023/07/22 02:19:16;;;;;;;14.48;8.45;;;12.50;99.90;;;;;;5110359;27;20038;-81
2023/07/22 02:21:41;;;;;;;13.02;8.50;;;11.70;99.90;;;;;;5080968;28;20062;-81
2023/07/22 02:24:08;;;;;;;11.63;7.90;;;12.20;99.90;;;;;;5085909;27;20039;-81
2023/07/22 02:26:33;;;;;;;11.38;7.95;;;11.80;99.90;;;;;;5110419;27;20039;-81
2023/07/22 02:28:59;;;;;;;11.93;7.90;;;11.70;99.90;;;;;;5109306;27;20631;-81
2023/07/22 02:31:25;;;;;;;11.45;7.93;;;11.90;99.90;;;;;;5110487;27;20069;-81
2023/07/22 02:33:51;;;;;;;12.18;7.60;;;11.70;99.90;;;;;;5111395;27;20045;-81
2023/07/22 02:36:16;;;;;;;13.98;8.85;;;11.80;99.90;;;;;;5076036;27;20618;-81
2023/07/22 02:38:42;;;;;;;11.32;7.82;;;11.70;99.90;;;;;;5104237;27;20197;-81
2023/07/22 02:41:07;;;;;;;13.85;8.30;;;11.70;99.90;;;;;;5124385;27;20034;-82
2023/07/22 02:43:36;;;;;;;14.10;8.70;;;12.40;99.90;;;;;;5093766;27;20516;-81
2023/07/22 02:46:03;;;;;;;13.40;8.00;;;11.80;99.90;;;;;;5110547;27;20050;-81
2023/07/22 02:48:31;;;;;;;15.10;8.50;;;11.90;99.90;;;;;;5128284;27;20042;-81
2023/07/22 02:51:04;;;;;;;16.48;8.05;;;11.90;99.90;;;;;;5108934;27;20496;-82
2023/07/22 02:53:29;;;;;;;16.98;9.15;;;11.90;99.90;;;;;;5111374;27;20043;-81
2023/07/22 02:55:55;;;;;;;15.25;8.48;;;11.90;99.90;;;;;;5128961;27;20031;-82
2023/07/22 02:58:21;;;;;;;14.27;8.40;;;12.00;99.90;;;;;;5092710;27;20549;-81
2023/07/22 03:00:49;;;;;;;12.80;7.90;;;12.00;99.90;;;;;;5128687;27;20035;-82
2023/07/22 03:03:15;;;;;;;14.65;7.93;;;12.10;99.90;;;;;;5110926;27;20050;-82
2023/07/22 03:05:40;;;;;;;13.18;8.75;;;12.10;99.90;;;;;;5108939;27;20039;-82
2023/07/22 03:08:07;;;;;;;14.25;8.35;;;12.10;99.90;;;;;;5107009;27;20131;-82
2023/07/22 03:10:33;;;;;;;13.73;8.55;;;12.10;99.90;;;;;;5107407;27;20114;-82
2023/07/22 03:12:59;;;;;;;13.73;9.15;;;12.10;99.90;;;;;;5128296;27;20064;-81
2023/07/22 03:15:28;;;;;;;14.70;9.63;;;12.10;99.90;;;;;;5108466;27;20047;-81
2023/07/22 03:18:01;;;;;;;13.90;9.32;;;12.10;99.90;;;;;;5093073;27;20489;-81
2023/07/22 03:20:27;;;;;;;15.68;8.57;;;12.10;99.90;;;;;;5109291;27;20058;-81
2023/07/22 03:22:52;;;;;;;14.13;7.97;;;12.10;99.90;;;;;;5092056;27;20031;-81
2023/07/22 03:25:20;;;;;;;12.70;8.63;;;12.10;99.90;;;;;;5107704;27;20057;-81
2023/07/22 03:27:46;;;;;;;12.60;8.43;;;12.20;99.90;;;;;;5109771;27;20172;-81
2023/07/22 03:30:16;;;;;;;13.48;8.98;;;12.20;99.90;;;;;;5109134;27;20051;-81
2023/07/22 03:32:44;;;;;;;11.75;8.00;;;12.20;99.90;;;;;;5109841;28;20047;-81
2023/07/22 03:35:10;;;;;;;13.95;8.75;;;12.20;99.90;;;;;;5096945;28;20050;-81
2023/07/22 03:37:36;;;;;;;15.98;8.70;;;12.30;99.90;;;;;;5105550;28;20051;-81
2023/07/22 03:40:06;;;;;;;13.43;8.27;;;12.30;99.90;;;;;;5108776;28;20039;-81
2023/07/22 03:42:33;;;;;;;15.80;9.65;;;12.40;99.90;;;;;;5126339;28;20035;-81
2023/07/22 03:44:59;;;;;;;12.73;8.15;;;12.40;99.90;;;;;;5096483;28;20039;-81
2023/07/22 03:47:24;;;;;;;13.95;8.98;;;12.50;99.90;;;;;;5083092;28;20039;-81
2023/07/22 03:49:50;;;;;;;14.68;9.90;;;12.50;99.90;;;;;;5092295;28;20119;-81
2023/07/22 03:52:18;;;;;;;14.73;9.07;;;12.60;99.90;;;;;;5109341;28;20095;-81
2023/07/22 03:54:44;;;;;;;11.57;8.63;;;12.60;99.90;;;;;;5108692;28;20062;-81
2023/07/22 03:57:10;;;;;;;13.02;9.07;;;12.70;99.90;;;;;;5109566;28;20401;-81
2023/07/22 03:59:35;;;;;;;12.93;8.90;;;12.70;99.90;;;;;;5109126;27;20039;-82
2023/07/22 04:02:02;;;;;;;14.75;9.23;;;12.70;99.90;;;;;;5086477;28;20460;-81
2023/07/22 04:04:27;;;;;;;14.65;9.35;;;12.70;99.90;;;;;;5108569;28;20047;-81
2023/07/22 04:06:53;;;;;;;18.45;10.15;;;12.80;99.90;;;;;;5109269;28;20039;-82
2023/07/22 04:09:18;;;;;;;18.13;9.75;;;12.80;99.90;;;;;;5106494;28;20035;-81
2023/07/22 04:11:44;;;;;;;15.30;9.43;;;13.10;99.90;;;;;;5105016;28;20039;-81
2023/07/22 04:14:12;;;;;;;14.07;9.20;;;12.90;99.90;;;;;;5127134;27;20100;-81
2023/07/22 04:16:38;;;;;;;13.20;8.35;;;12.90;99.90;;;;;;5095308;28;20461;-81
2023/07/22 04:19:03;;;;;;;14.95;9.88;;;13.00;99.90;;;;;;5094008;28;20040;-81
2023/07/22 04:21:29;;;;;;;15.20;9.60;;;13.10;99.90;;;;;;5114365;28;20035;-82
2023/07/22 04:23:55;;;;;;;14.27;9.63;;;13.10;99.90;;;;;;5092387;28;20050;-82
2023/07/22 04:26:20;;;;;;;15.52;9.48;;;13.20;99.90;;;;;;5091398;28;20404;-82
2023/07/22 04:28:46;;;;;;;15.25;9.73;;;13.60;99.90;;;;;;5097814;28;20051;-82
2023/07/22 04:31:11;;;;;;;17.35;10.68;;;13.80;99.90;;;;;;5107792;28;20050;-82
2023/07/22 04:33:37;;;;;;;13.77;9.20;;;13.30;99.90;;;;;;5138736;27;20481;-82
2023/07/22 04:36:03;;;;;;;11.50;8.60;;;13.40;99.90;;;;;;5124895;28;20153;-82
2023/07/22 04:38:28;;;;;;;15.07;9.38;;;13.40;99.90;;;;;;5109742;28;20049;-81
2023/07/22 04:40:54;;;;;;;15.80;9.50;;;13.40;99.90;;;;;;5098464;28;20054;-81
2023/07/22 04:43:20;;;;;;;15.40;9.90;;;13.50;99.90;;;;;;5073451;28;20167;-81
2023/07/22 04:45:49;;;;;;;15.15;9.40;;;13.80;99.90;;;;;;5096827;28;20043;-81
2023/07/22 04:48:22;;;;;;;14.50;9.35;;;13.50;99.90;;;;;;5109116;28;20039;-81
2023/07/22 04:50:47;;;;;;;13.20;9.20;;;13.50;99.90;;;;;;5109010;27;20463;-81
2023/07/22 04:53:13;;;;;;;13.90;9.45;;;13.60;99.90;;;;;;5113578;27;20039;-81
2023/07/22 04:55:40;;;;;;;15.27;10.57;;;13.60;99.90;;;;;;5110469;27;20707;-81
2023/07/22 04:58:05;;;;;;;16.77;10.05;;;13.60;99.90;;;;;;5113135;27;20047;-81
2023/07/22 05:00:31;;;;;;;13.82;9.70;;;13.70;99.90;;;;;;5113035;27;20045;-81
2023/07/22 05:02:57;;;;;;;15.32;9.45;;;13.80;99.90;;;;;;5095635;27;20098;-81
2023/07/22 05:05:22;;;;;;;14.60;10.20;;;13.80;99.90;;;;;;5095543;27;20410;-81
2023/07/22 05:07:49;;;;;;;14.15;9.52;;;13.80;99.90;;;;;;5112310;27;20549;-81
2023/07/22 05:10:15;;;;;;;15.05;10.35;;;13.80;99.90;;;;;;5105001;28;20067;-82
2023/07/22 05:12:43;;;;;;;15.25;10.00;;;13.80;99.90;;;;;;5107396;27;20124;-82
2023/07/22 05:15:13;;;;;;;16.00;10.45;;;13.90;99.90;;;;;;5109718;27;20496;-81
2023/07/22 05:17:39;;;;;;;14.20;9.50;;;13.80;99.90;;;;;;5105492;27;20042;-81
2023/07/22 05:20:06;;;;;;;14.75;9.73;;;14.00;99.90;;;;;;5128672;27;20035;-82
2023/07/22 05:22:32;;;;;;;15.30;9.93;;;13.90;99.90;;;;;;5113046;27;20046;-82
2023/07/22 05:24:58;;;;;;;14.80;10.02;;;13.90;99.90;;;;;;5110774;27;20049;-82
2023/07/22 05:27:26;;;;;;;14.20;9.98;;;14.00;99.90;;;;;;5107895;27;20141;-82
2023/07/22 05:29:52;;;;;;;13.02;9.73;;;14.00;99.90;;;;;;5109613;27;20385;-82
2023/07/22 05:32:18;;;;;;;14.20;9.80;;;14.10;99.90;;;;;;5112472;27;20043;-82
2023/07/22 05:34:43;;;;;;;14.85;10.52;;;13.90;99.90;;;;;;5113703;27;20099;-82
2023/07/22 05:37:09;;;;;;;14.90;10.07;;;13.90;99.90;;;;;;5133117;27;20054;-82
2023/07/22 05:39:34;;;;;;;13.20;9.35;;;13.90;99.90;;;;;;5132940;27;20154;-82
2023/07/22 05:42:00;;;;;;;16.08;10.00;;;13.90;99.90;;;;;;5151596;27;20035;-82
2023/07/22 05:44:25;;;;;;;17.52;10.00;;;14.00;99.90;;;;;;5126838;27;20811;-82
2023/07/22 05:46:51;;;;;;;15.60;10.43;;;13.90;99.90;;;;;;5120141;27;20046;-82
2023/07/22 05:49:17;;;;;;;13.38;9.13;;;14.00;99.90;;;;;;5113990;27;20107;-82
2023/07/22 05:51:42;;;;;;;15.18;10.32;;;14.00;99.90;;;;;;5109926;27;20416;-83
2023/07/22 05:54:08;;;;;;;15.68;9.77;;;14.00;99.90;;;;;;5110628;27;20043;-81
2023/07/22 05:56:34;;;;;;;14.82;9.68;;;14.00;99.90;;;;;;5080889;27;20397;-81
2023/07/22 05:58:59;;;;;;;15.88;10.95;;;14.10;99.90;;;;;;5095109;27;20489;-83
2023/07/22 06:01:25;;;;;;;15.82;10.30;;;14.10;99.90;;;;;;5111734;27;20039;-82
2023/07/22 06:03:51;;;;;;;15.00;10.05;;;14.00;99.90;;;;;;5128074;27;20046;-81
2023/07/22 06:06:17;;;;;;;18.25;10.55;;;14.10;99.90;;;;;;5131539;27;20493;-82
2023/07/22 06:08:42;;;;;;;17.02;10.43;;;14.30;99.90;;;;;;5100179;28;20046;-82
2023/07/22 06:11:08;;;;;;;14.88;10.13;;;14.10;99.90;;;;;;5092677;28;20048;-83
2023/07/22 06:13:34;;;;;;;13.70;9.80;;;14.20;99.90;;;;;;5091386;28;20043;-83
2023/07/22 06:15:59;;;;;;;15.20;10.45;;;14.20;99.90;;;;;;5108141;28;20044;-82
2023/07/22 06:18:25;;;;;;;15.55;10.27;;;15.10;99.90;;;;;;5094982;27;20098;-82
2023/07/22 06:20:51;;;;;;;14.80;10.48;;;14.40;99.90;;;;;;5131839;27;20042;-81
2023/07/22 06:23:16;;;;;;;13.93;10.85;;;14.50;99.90;;;;;;5132520;27;20126;-82
2023/07/22 06:25:42;;;;;;;13.27;10.02;;;14.60;99.90;;;;;;5112999;27;20043;-82
2023/07/22 06:28:08;;;;;;;16.30;10.32;;;14.70;99.90;;;;;;5111345;27;20087;-83
2023/07/22 06:30:34;;;;;;;15.88;10.52;;;15.50;99.90;;;;;;5109372;27;20129;-82
2023/07/22 06:32:59;;;;;;;14.25;10.35;;;15.30;99.90;;;;;;5111239;27;20035;-82
2023/07/22 06:35:25;;;;;;;14.10;9.95;;;15.40;99.90;;;;;;5073357;28;20043;-82
2023/07/22 06:37:51;;;;;;;13.82;10.73;;;15.60;99.90;;;;;;5090354;28;20063;-81
2023/07/22 06:40:17;;;;;;;17.33;11.63;;;15.50;99.90;;;;;;5073804;28;20039;-82
2023/07/22 06:42:42;;;;;;;17.42;11.52;;;15.60;99.90;;;;;;5107806;28;20045;-82
2023/07/22 06:45:08;;;;;;;19.02;11.93;;;15.60;99.90;;;;;;5095651;27;20099;-82
2023/07/22 06:47:35;;;;;;;16.90;11.63;;;15.60;99.90;;;;;;5093723;27;20070;-83
2023/07/22 06:50:00;;;;;;;20.63;12.35;;;16.00;99.90;;;;;;5110371;27;20173;-82
2023/07/22 06:52:26;;;;;;;20.30;12.05;;;15.80;99.90;;;;;;5110210;27;20043;-82
2023/07/22 06:54:51;;;;;;;20.45;13.10;;;16.00;99.90;;;;;;5110700;27;20039;-82
2023/07/22 06:57:17;;;;;;;17.88;12.43;;;16.50;99.90;;;;;;5110873;27;20054;-82
2023/07/22 06:59:43;;;;;;;19.58;12.98;;;16.10;99.90;;;;;;5110748;27;20043;-81
2023/07/22 07:02:09;;;;;;;18.35;12.93;;;16.10;99.90;;;;;;5094152;27;20036;-82
2023/07/22 07:04:35;;;;;;;17.00;12.18;;;16.70;99.90;;;;;;5112790;27;20039;-82
2023/07/22 07:07:00;;;;;;;16.00;13.10;;;16.20;99.90;;;;;;5145833;27;20042;-82
2023/07/22 07:09:26;;;;;;;18.85;12.48;;;16.60;99.90;;;;;;5110416;27;20378;-82
2023/07/22 07:11:51;;;;;;;18.15;13.23;;;16.50;99.90;;;;;;5093752;27;20047;-82
2023/07/22 07:14:18;;;;;;;17.50;12.07;;;16.60;99.90;;;;;;5110445;27;20050;-82
2023/07/22 07:16:43;;;;;;;15.77;12.27;;;17.10;99.90;;;;;;5093696;27;20050;-82
2023/07/22 07:19:10;;;;;;;16.15;12.80;;;17.10;99.90;;;;;;5128772;27;20047;-81
2023/07/22 07:21:35;;;;;;;17.02;12.25;;;16.90;99.90;;;;;;5110517;27;20047;-82
2023/07/22 07:24:01;;;;;;;14.65;11.77;;;16.90;99.90;;;;;;5130581;27;20515;-82
2023/07/22 07:26:27;;;;;;;18.00;11.98;;;17.00;99.90;;;;;;5113632;27;20408;-82
2023/07/22 07:28:53;;;;;;;16.13;12.27;;;17.00;99.90;;;;;;5113015;27;20062;-83
2023/07/22 07:31:19;;;;;;;20.45;12.25;;;17.10;99.90;;;;;;5130959;27;20065;-82
2023/07/22 07:33:45;;;;;;;19.05;12.75;;;17.20;99.90;;;;;;5131112;27;20042;-82
2023/07/22 07:36:10;;;;;;;17.80;12.88;;;17.10;99.90;;;;;;5130791;27;20099;-83
2023/07/22 07:38:36;;;;;;;16.17;12.05;;;17.20;99.90;;;;;;5116042;28;20051;-82
2023/07/22 07:41:03;;;;;;;18.38;12.85;;;17.30;99.90;;;;;;5128307;28;20043;-82
2023/07/22 07:43:29;;;;;;;16.08;12.48;;;18.00;99.90;;;;;;5093246;28;20035;-82
2023/07/22 07:46:23;;;;;;;18.23;13.07;;;17.50;99.90;;;;;;5093304;28;20054;-82
2023/07/22 07:48:55;;;;;;;17.05;11.98;;;17.70;99.90;;;;;;5109772;28;20111;-81
2023/07/22 07:51:22;;;;;;;15.43;12.02;;;17.70;99.90;;;;;;5109503;28;20054;-81
2023/07/22 07:53:48;;;;;;;14.05;12.15;;;17.80;99.90;;;;;;5143445;27;20042;-82
2023/07/22 07:56:16;;;;;;;15.93;11.98;;;18.00;99.90;;;;;;5108037;28;20048;-82
2023/07/22 07:58:42;;;;;;;15.05;11.50;;;18.10;99.90;;;;;;5089834;28;20859;-82
2023/07/22 08:01:08;;;;;;;15.30;10.80;;;18.30;99.90;;;;;;5072528;28;20065;-83
2023/07/22 08:03:35;;;;;;;15.63;11.45;;;18.50;99.90;;;;;;5072909;28;20393;-82
2023/07/22 08:06:01;;;;;;;15.18;11.85;;;18.80;99.90;;;;;;5099815;28;20393;-82
2023/07/22 08:08:28;;;;;;;16.08;11.20;;;18.40;99.90;;;;;;5127318;27;20066;-82
2023/07/22 08:11:10;;;;;;;15.75;11.02;;;18.50;99.90;;;;;;5121754;27;20055;-82
2023/07/22 08:13:36;;;;;;;14.48;10.80;;;18.30;99.90;;;;;;5127150;27;20042;-81
2023/07/22 08:16:07;;;;;;;15.90;11.18;;;18.30;99.90;;;;;;5121216;27;20046;-81
2023/07/22 08:18:33;;;;;;;14.32;10.65;;;18.30;99.90;;;;;;5093202;28;20051;-82
2023/07/22 08:20:59;;;;;;;13.85;11.07;;;18.60;99.90;;;;;;5109906;28;20039;-82
2023/07/22 08:23:25;;;;;;;15.60;11.00;;;18.50;99.90;;;;;;5109336;28;20043;-82
2023/07/22 08:25:51;;;;;;;12.52;10.25;;;18.60;99.90;;;;;;5110479;27;20405;-83
2023/07/22 08:28:17;;;;;;;14.73;10.70;;;18.70;99.90;;;;;;5113414;27;20119;-81
2023/07/22 08:30:44;;;;;;;13.50;10.73;;;18.70;99.90;;;;;;5111835;27;20082;-82
2023/07/22 08:33:11;;;;;;;14.52;10.32;;;18.60;99.90;;;;;;5109515;27;20489;-82
2023/07/22 08:35:37;;;;;;;13.52;10.73;;;18.70;99.90;;;;;;5095275;27;20123;-82
2023/07/22 08:38:03;;;;;;;12.32;9.60;;;18.80;99.90;;;;;;5113695;27;20700;-82
2023/07/22 08:45:44;;;;;;;;;;;;;;;;;;;;;
2023/07/22 08:48:18;;;;;;;12.88;9.80;;;18.70;99.90;;;;;;5100150;27;20921;-82
2023/07/22 08:50:58;;;;;;;13.27;9.77;;;18.40;99.90;;;;;;5090549;28;20051;-82
2023/07/22 08:53:25;;;;;;;11.15;9.30;;;18.70;99.90;;;;;;5108755;27;20031;-82
2023/07/22 08:56:03;;;;;;;12.50;9.85;;;18.70;99.90;;;;;;5108414;27;20056;-82
2023/07/22 08:58:33;;;;;;;11.95;9.70;;;18.70;99.90;;;;;;5102360;27;20039;-82
2023/07/22 09:01:00;;;;;;;12.07;9.73;;;18.60;99.90;;;;;;5129506;27;20119;-82
2023/07/22 09:03:26;;;;;;;11.50;8.50;;;18.50;99.90;;;;;;5112214;27;20054;-83
2023/07/22 09:05:59;;;;;;;11.25;9.55;;;18.50;99.90;;;;;;5131086;27;20043;-82
2023/07/22 09:08:25;;;;;;;12.80;9.80;;;18.00;99.90;;;;;;5112197;27;20054;-81
2023/07/22 09:10:53;;;;;;;12.98;9.82;;;18.30;99.90;;;;;;5131339;27;20039;-83
2023/07/22 09:13:21;;;;;;;12.65;9.60;;;18.60;99.90;;;;;;5112335;27;20031;-82
2023/07/22 09:16:05;;;;;;;14.52;9.07;;;17.90;99.90;;;;;;5143006;27;20095;-83
2023/07/22 09:18:33;;;;;;;12.23;9.07;;;17.80;99.90;;;;;;5127292;27;20047;-81
2023/07/22 09:21:03;;;;;;;11.75;9.15;;;17.90;99.90;;;;;;5119562;27;20070;-81
2023/07/22 09:23:39;;;;;;;10.98;8.98;;;18.40;99.90;;;;;;5086826;27;20059;-82
2023/07/22 09:26:14;;;;;;;13.70;9.30;;;17.70;99.90;;;;;;5087342;27;20527;-82
2023/07/22 09:28:53;;;;;;;11.07;8.65;;;17.60;99.90;;;;;;5109332;27;20421;-81
2023/07/22 09:31:22;;;;;;;11.60;8.13;;;18.30;99.90;;;;;;5094941;27;20086;-81
2023/07/22 09:33:48;;;;;;;10.23;7.68;;;18.80;99.90;;;;;;5094901;27;20078;-81
2023/07/22 09:36:14;;;;;;;9.70;7.70;;;18.80;99.90;;;;;;5091962;27;20043;-82
2023/07/22 09:38:48;;;;;;;9.40;7.78;;;18.40;99.90;;;;;;5110835;27;20496;-81
2023/07/22 09:41:19;;;;;;;12.63;7.70;;;17.60;99.90;;;;;;5094540;27;20081;-81
2023/07/22 09:43:48;;;;;;;9.23;7.35;;;17.80;99.90;;;;;;5120023;27;20086;-83
2023/07/22 09:46:19;;;;;;;7.15;6.38;;;18.00;99.90;;;;;;5110570;27;20655;-82
2023/07/22 09:48:55;;;;;;;9.30;7.43;;;17.70;99.90;;;;;;5095072;27;20387;-81
2023/07/22 09:51:36;;;;;;;9.70;7.15;;;17.30;99.90;;;;;;5130343;27;20129;-82
2023/07/22 09:54:11;;;;;;;8.75;7.45;;;17.50;99.90;;;;;;5089808;28;20092;-81
2023/07/22 09:57:03;;;;;;;9.10;6.85;;;18.50;99.90;;;;;;5079710;27;20681;-82
2023/07/22 09:59:30;;;;;;;12.07;7.13;;;18.60;99.90;;;;;;5108941;27;20497;-82
2023/07/22 10:01:59;;;;;;;8.80;6.75;;;18.40;99.90;;;;;;5096124;27;20584;-82
2023/07/22 10:04:30;;;;;;;8.35;6.25;;;18.50;99.90;;;;;;5130886;27;20771;-82
2023/07/22 10:07:12;;;;;;;7.07;6.25;;;18.90;99.90;;;;;;5095352;27;20116;-82
2023/07/22 10:09:46;;;;;;;7.97;6.00;;;18.90;99.90;;;;;;5095932;27;20825;-82
2023/07/22 10:12:15;;;;;;;6.80;5.55;;;19.00;99.90;;;;;;5082241;27;20079;-82
2023/07/22 10:14:45;;;;;;;6.95;5.55;;;19.10;99.90;;;;;;5076963;28;20047;-81
2023/07/22 10:17:13;;;;;;;8.00;5.50;;;20.00;99.90;;;;;;5076192;28;20045;-82
2023/07/22 10:19:39;;;;;;;9.55;5.68;;;19.70;99.90;;;;;;5074940;28;20055;-82
2023/07/22 10:22:11;;;;;;;7.88;6.13;;;19.40;99.90;;;;;;5095044;27;20764;-82
2023/07/22 10:24:51;;;;;;;8.13;5.95;;;19.40;99.90;;;;;;5110707;27;20078;-82
2023/07/22 10:27:18;;;;;;;8.13;5.95;;;18.70;99.90;;;;;;5129264;27;20074;-82
2023/07/22 10:29:45;;;;;;;7.07;6.05;;;18.70;99.90;;;;;;5110790;27;20428;-83
2023/07/22 10:32:14;;;;;;;8.38;6.13;;;18.00;99.90;;;;;;5100252;27;20039;-82
2023/07/22 10:34:40;;;;;;;8.85;6.20;;;18.60;99.90;;;;;;5102704;27;20138;-81
2023/07/22 10:37:09;;;;;;;8.55;6.63;;;18.50;99.90;;;;;;5090392;27;20130;-81
2023/07/22 10:39:40;;;;;;;9.02;6.35;;;18.50;99.90;;;;;;5093164;27;20463;-81
2023/07/22 10:42:06;;;;;;;7.07;6.35;;;19.00;99.90;;;;;;5093600;27;20086;-81
2023/07/22 10:44:38;;;;;;;8.07;6.43;;;18.60;99.90;;;;;;5093528;27;20047;-82
2023/07/22 10:47:07;;;;;;;8.40;6.10;;;18.80;99.90;;;;;;5093626;27;20043;-82
2023/07/22 10:49:48;;;;;;;7.03;5.85;;;19.40;99.90;;;;;;5106750;27;20126;-82
2023/07/22 10:52:56;;;;;;;;;;;;;;;;;;;;;
2023/07/22 10:56:25;;;;;;;6.43;5.47;;;18.40;99.90;;;;;;5108953;27;20486;-83
2023/07/22 10:59:05;;;;;;;7.28;5.53;;;18.10;99.90;;;;;;5081939;27;20066;-84
2023/07/22 11:01:46;;;;;;;6.93;5.47;;;18.00;99.90;;;;;;5128602;27;20138;-84
2023/07/22 11:04:34;;;;;;;7.68;5.55;;;18.60;99.90;;;;;;5094692;27;20043;-84
2023/07/22 11:07:47;;;;;;;8.27;6.65;;;18.20;99.90;;;;;;5086538;28;20051;-86
2023/07/22 11:10:55;;;;;;;8.05;6.15;;;18.10;99.90;;;;;;5122806;27;20073;-85
2023/07/22 11:13:42;;;;;;;9.05;6.38;;;17.90;99.90;;;;;;5117255;27;20051;-83
2023/07/22 11:16:20;;;;;;;16.08;6.90;;;17.70;99.90;;;;;;5110308;27;20051;-84
2023/07/22 11:18:46;;;;;;;9.73;7.20;;;17.50;99.90;;;;;;5092970;27;20119;-83
2023/07/22 11:21:17;;;;;;;9.35;6.85;;;17.80;99.90;;;;;;5091745;27;20096;-82
2023/07/22 11:23:42;;;;;;;10.50;7.78;;;17.00;99.90;;;;;;5085385;28;20123;-83
2023/07/22 11:26:10;;;;;;;34.25;10.10;;;17.10;99.90;;;;;;5123666;27;20039;-82
2023/07/22 11:28:38;;;;;;;17.80;9.88;;;16.40;99.90;;;;;;5128166;27;20079;-84
2023/07/22 11:31:06;;;;;;;16.13;9.82;;;16.20;99.90;;;;;;5110234;28;20047;-82
2023/07/22 11:33:48;;;;;;;12.57;9.05;;;16.60;99.90;;;;;;5110130;27;20183;-84
2023/07/22 11:36:14;;;;;;;11.20;8.43;;;15.90;99.90;;;;;;5126597;27;20107;-83
2023/07/22 11:38:39;;;;;;;10.88;8.90;;;15.90;99.90;;;;;;5124645;27;20040;-84
2023/07/22 11:41:07;;;;;;;10.88;8.50;;;16.50;99.90;;;;;;5106768;27;20498;-85
2023/07/22 11:43:35;;;;;;;10.68;8.50;;;16.40;99.90;;;;;;5106473;28;20048;-83
2023/07/22 11:46:09;;;;;;;11.55;8.15;;;15.30;99.90;;;;;;5089764;28;20043;-85
2023/07/22 11:48:35;;;;;;;11.25;8.68;;;15.90;99.90;;;;;;5097271;28;20484;-83
2023/07/22 11:51:01;;;;;;;11.38;9.10;;;16.00;99.90;;;;;;5108555;28;20047;-83
2023/07/22 11:53:29;;;;;;;10.45;9.40;;;16.00;99.90;;;;;;5128861;28;20035;-82
2023/07/22 11:56:05;;;;;;;12.77;9.82;;;16.90;99.90;;;;;;5110518;27;20062;-83
2023/07/22 11:58:35;;;;;;;11.45;9.32;;;16.20;99.90;;;;;;5103158;28;20066;-84
2023/07/22 12:01:10;;;;;;;13.40;9.70;;;16.30;99.90;;;;;;5083308;28;20159;-84
2023/07/22 12:03:46;;;;;;;14.25;10.50;;;15.90;99.90;;;;;;5116246;27;20491;-84
2023/07/22 12:06:28;;;;;;;;;;;;;;;;;;;;;
2023/07/22 12:09:04;;;;;;;10.80;9.32;;;16.00;99.90;;;;;;5093240;28;20080;-84
2023/07/22 12:11:58;;;;;;;10.25;9.15;;;16.30;99.90;;;;;;5089883;27;20043;-84
2023/07/22 12:14:23;;;;;;;14.93;10.30;;;17.10;99.90;;;;;;5123718;27;20050;-85
2023/07/22 12:16:56;;;;;;;15.25;10.05;;;16.60;99.90;;;;;;5097444;27;20057;-86
2023/07/22 12:19:22;;;;;;;11.60;10.18;;;16.60;99.90;;;;;;5096155;27;20051;-85
2023/07/22 12:21:48;;;;;;;11.45;9.68;;;17.70;99.90;;;;;;5137043;27;20058;-85
2023/07/22 12:24:14;;;;;;;13.30;10.93;;;16.70;99.90;;;;;;5152746;27;20377;-85
2023/07/22 12:26:40;;;;;;;12.95;11.27;;;16.60;99.90;;;;;;5117004;27;20704;-85
2023/07/22 12:29:07;;;;;;;12.57;11.27;;;16.60;99.90;;;;;;5121322;27;20043;-86
2023/07/22 12:31:33;;;;;;;14.45;11.55;;;17.00;99.90;;;;;;5092577;27;20095;-86
2023/07/22 12:33:59;;;;;;;12.25;10.50;;;17.00;99.90;;;;;;5114359;27;20047;-84
2023/07/22 12:36:25;;;;;;;14.50;11.63;;;16.70;99.90;;;;;;5112430;27;20035;-85
2023/07/22 12:38:50;;;;;;;12.40;10.43;;;16.60;99.90;;;;;;5096229;27;20086;-84
2023/07/22 12:41:16;;;;;;;13.35;11.30;;;16.60;99.90;;;;;;5099400;27;20478;-86
2023/07/22 12:43:42;;;;;;;13.82;10.93;;;17.00;99.90;;;;;;5092654;28;20079;-85
2023/07/22 12:46:07;;;;;;;12.95;11.02;;;16.50;99.90;;;;;;5093177;28;20483;-84
2023/07/22 12:48:33;;;;;;;12.88;11.52;;;16.90;99.90;;;;;;5131463;27;20496;-86
2023/07/22 12:50:59;;;;;;;13.20;11.50;;;16.50;99.90;;;;;;5112615;27;20039;-85